Terminal Aerodrome Forecast
Issued by NWS

Home | Current Version | Previous Version | Text Only | Print | Product List | Glossary On
Versions: 1 2 3 4 5 6 7 8 9 10 11 12 13 14 15 16 17 18 19 20 21 22 23 24 25 26 27 28 29 30 31 32
000
FTPA31 PHFO 290700 AAA
TAFPPG
TAF AMD
NSTU 290712Z 2907/3006 30008KT 6SM -SHRA VCTS SCT015CB BKN040
      BKN080
      TEMPO 2907/2910 2SM +SHRA BKN015
     FM292000 01012G18KT 6SM -SHRA VCTS SCT015CB BKN040 BKN080=

USA.gov is the U.S. government's official web portal to all federal, state and local government web resources and services.